Terminal Aerodrome Forecast
Issued by NWS

Home | Current Version | Previous Version | Text Only | Print | Product List | Glossary On
Versions: 1 2 3 4 5 6 7 8 9 10 11 12 13 14 15 16
000
FTUS42 KTBW 201139
TAFPIE
TAF
KPIE 201139Z 2012/2112 04010KT P6SM SKC
     FM201500 06008KT P6SM FEW250
     FM202000 08008KT P6SM FEW050 SCT250
     FM210500 08009KT P6SM BKN050=

USA.gov is the U.S. government's official web portal to all federal, state and local government web resources and services.